sensor_id;sensor_type;location;lat;lon;timestamp;pressure;altitude;pressure_sealevel;temperature;humidity
30935;BME280;51033;42.648;23.292;2023-09-07T00:00:29;94370.44;;;20.84;51.60
30935;BME280;51033;42.648;23.292;2023-09-07T00:02:55;94363.47;;;20.83;51.84
30935;BME280;51033;42.648;23.292;2023-09-07T00:05:20;94348.91;;;20.65;52.13
30935;BME280;51033;42.648;23.292;2023-09-07T00:07:46;94347.03;;;20.69;51.94
30935;BME280;51033;42.648;23.292;2023-09-07T00:10:11;94342.16;;;20.51;52.43
30935;BME280;51033;42.648;23.292;2023-09-07T00:12:37;94338.97;;;20.46;52.78
30935;BME280;51033;42.648;23.292;2023-09-07T00:15:05;94337.38;;;20.41;52.84
30935;BME280;51033;42.648;23.292;2023-09-07T00:17:31;94338.19;;;20.45;53.25
30935;BME280;51033;42.648;23.292;2023-09-07T00:19:57;94346.72;;;20.47;53.21
30935;BME280;51033;42.648;23.292;2023-09-07T00:22:23;94345.16;;;20.46;53.17
30935;BME280;51033;42.648;23.292;2023-09-07T00:24:50;94343.56;;;20.42;53.19
30935;BME280;51033;42.648;23.292;2023-09-07T00:27:16;94351.75;;;20.23;53.81
30935;BME280;51033;42.648;23.292;2023-09-07T00:29:41;94348.34;;;20.29;53.61
30935;BME280;51033;42.648;23.292;2023-09-07T00:32:07;94329.44;;;19.84;54.79
30935;BME280;51033;42.648;23.292;2023-09-07T00:34:33;94334.00;;;19.80;55.10
30935;BME280;51033;42.648;23.292;2023-09-07T00:36:58;94349.97;;;20.11;54.77
30935;BME280;51033;42.648;23.292;2023-09-07T00:39:23;94317.97;;;19.90;55.71
30935;BME280;51033;42.648;23.292;2023-09-07T00:41:49;94336.25;;;19.78;57.11
30935;BME280;51033;42.648;23.292;2023-09-07T00:44:14;94325.59;;;19.85;56.42
30935;BME280;51033;42.648;23.292;2023-09-07T00:46:40;94323.06;;;19.72;56.14
30935;BME280;51033;42.648;23.292;2023-09-07T00:49:05;94326.06;;;19.67;56.03
30935;BME280;51033;42.648;23.292;2023-09-07T00:51:31;94325.00;;;19.53;55.88
30935;BME280;51033;42.648;23.292;2023-09-07T00:53:58;94304.44;;;18.87;56.99
30935;BME280;51033;42.648;23.292;2023-09-07T00:56:25;94335.78;;;19.14;57.37
30935;BME280;51033;42.648;23.292;2023-09-07T00:58:52;94323.09;;;19.34;57.62
30935;BME280;51033;42.648;23.292;2023-09-07T01:01:20;94327.66;;;19.49;57.86
30935;BME280;51033;42.648;23.292;2023-09-07T01:03:45;94298.25;;;19.44;57.69
30935;BME280;51033;42.648;23.292;2023-09-07T01:06:27;94317.53;;;19.65;57.42
30935;BME280;51033;42.648;23.292;2023-09-07T01:08:57;94325.16;;;19.60;57.96
30935;BME280;51033;42.648;23.292;2023-09-07T01:11:26;94312.59;;;19.48;58.16
30935;BME280;51033;42.648;23.292;2023-09-07T01:13:52;94320.53;;;19.22;59.88
30935;BME280;51033;42.648;23.292;2023-09-07T01:16:19;94311.28;;;19.42;59.47
30935;BME280;51033;42.648;23.292;2023-09-07T01:18:46;94324.00;;;19.42;60.01
30935;BME280;51033;42.648;23.292;2023-09-07T01:21:13;94317.69;;;19.53;59.18
30935;BME280;51033;42.648;23.292;2023-09-07T01:23:41;94324.44;;;19.63;58.68
30935;BME280;51033;42.648;23.292;2023-09-07T01:26:08;94318.59;;;19.61;58.66
30935;BME280;51033;42.648;23.292;2023-09-07T01:28:34;94317.06;;;19.41;58.53
30935;BME280;51033;42.648;23.292;2023-09-07T01:31:00;94322.38;;;19.37;58.00
30935;BME280;51033;42.648;23.292;2023-09-07T01:33:26;94324.38;;;19.40;57.73
30935;BME280;51033;42.648;23.292;2023-09-07T01:35:52;94323.53;;;19.55;56.69
30935;BME280;51033;42.648;23.292;2023-09-07T01:38:17;94322.38;;;19.37;56.40
30935;BME280;51033;42.648;23.292;2023-09-07T01:40:43;94298.66;;;19.46;56.19
30935;BME280;51033;42.648;23.292;2023-09-07T01:43:08;94318.84;;;19.14;56.89
30935;BME280;51033;42.648;23.292;2023-09-07T01:45:34;94328.34;;;19.46;56.77
30935;BME280;51033;42.648;23.292;2023-09-07T01:47:59;94332.59;;;19.28;57.87
30935;BME280;51033;42.648;23.292;2023-09-07T01:50:25;94322.66;;;19.51;56.69
30935;BME280;51033;42.648;23.292;2023-09-07T01:52:51;94320.94;;;19.43;56.56
30935;BME280;51033;42.648;23.292;2023-09-07T01:55:16;94317.81;;;19.60;55.36
30935;BME280;51033;42.648;23.292;2023-09-07T01:57:42;94316.47;;;19.31;56.01
30935;BME280;51033;42.648;23.292;2023-09-07T02:00:10;94318.97;;;19.21;56.66
30935;BME280;51033;42.648;23.292;2023-09-07T02:02:36;94305.41;;;19.17;56.57
30935;BME280;51033;42.648;23.292;2023-09-07T02:05:01;94322.81;;;19.20;56.80
30935;BME280;51033;42.648;23.292;2023-09-07T02:07:27;94325.34;;;19.13;57.23
30935;BME280;51033;42.648;23.292;2023-09-07T02:09:52;94311.47;;;19.30;56.35
30935;BME280;51033;42.648;23.292;2023-09-07T02:12:18;94310.31;;;19.31;55.93
30935;BME280;51033;42.648;23.292;2023-09-07T02:14:43;94319.31;;;19.00;57.34
30935;BME280;51033;42.648;23.292;2023-09-07T02:17:08;94305.63;;;19.09;56.81
30935;BME280;51033;42.648;23.292;2023-09-07T02:19:34;94314.78;;;19.04;57.70
30935;BME280;51033;42.648;23.292;2023-09-07T02:22:00;94318.25;;;19.24;57.55
30935;BME280;51033;42.648;23.292;2023-09-07T02:24:26;94320.38;;;19.34;57.37
30935;BME280;51033;42.648;23.292;2023-09-07T02:26:51;94316.47;;;19.31;58.08
30935;BME280;51033;42.648;23.292;2023-09-07T02:29:17;94316.41;;;19.28;58.46
30935;BME280;51033;42.648;23.292;2023-09-07T02:31:42;94324.00;;;19.42;58.46
30935;BME280;51033;42.648;23.292;2023-09-07T02:34:07;94328.03;;;19.32;58.64
30935;BME280;51033;42.648;23.292;2023-09-07T02:36:34;94329.00;;;19.20;59.54
30935;BME280;51033;42.648;23.292;2023-09-07T02:39:02;94331.97;;;19.15;60.09
30935;BME280;51033;42.648;23.292;2023-09-07T02:41:28;94327.34;;;19.16;60.07
30935;BME280;51033;42.648;23.292;2023-09-07T02:43:54;94340.00;;;19.31;59.56
30935;BME280;51033;42.648;23.292;2023-09-07T02:46:19;94327.34;;;19.35;59.20
30935;BME280;51033;42.648;23.292;2023-09-07T02:48:45;94338.84;;;19.13;60.09
30935;BME280;51033;42.648;23.292;2023-09-07T02:51:10;94334.44;;;19.05;60.45
30935;BME280;51033;42.648;23.292;2023-09-07T02:53:36;94323.28;;;18.87;61.02
30935;BME280;51033;42.648;23.292;2023-09-07T02:56:01;94327.75;;;18.99;60.33
30935;BME280;51033;42.648;23.292;2023-09-07T02:58:30;94330.03;;;18.97;60.29
30935;BME280;51033;42.648;23.292;2023-09-07T03:00:55;94336.78;;;18.87;61.14
30935;BME280;51033;42.648;23.292;2023-09-07T03:03:21;94327.47;;;18.84;60.84
30935;BME280;51033;42.648;23.292;2023-09-07T03:05:46;94328.59;;;18.83;60.97
30935;BME280;51033;42.648;23.292;2023-09-07T03:08:12;94343.06;;;18.95;60.99
30935;BME280;51033;42.648;23.292;2023-09-07T03:10:38;94333.56;;;18.81;61.67
30935;BME280;51033;42.648;23.292;2023-09-07T03:13:05;94329.31;;;19.00;61.41
30935;BME280;51033;42.648;23.292;2023-09-07T03:15:31;94322.22;;;18.92;61.71
30935;BME280;51033;42.648;23.292;2023-09-07T03:17:56;94331.81;;;18.73;62.99
30935;BME280;51033;42.648;23.292;2023-09-07T03:20:21;94333.31;;;18.71;62.93
30935;BME280;51033;42.648;23.292;2023-09-07T03:22:47;94318.19;;;18.82;62.17
30935;BME280;51033;42.648;23.292;2023-09-07T03:25:13;94334.41;;;18.85;62.46
30935;BME280;51033;42.648;23.292;2023-09-07T03:27:39;94330.44;;;18.79;62.88
30935;BME280;51033;42.648;23.292;2023-09-07T03:30:05;94341.69;;;19.01;62.05
30935;BME280;51033;42.648;23.292;2023-09-07T03:32:31;94315.69;;;18.93;61.32
30935;BME280;51033;42.648;23.292;2023-09-07T03:35:03;94341.69;;;19.01;61.89
30935;BME280;51033;42.648;23.292;2023-09-07T03:37:32;94330.88;;;18.81;62.31
30935;BME280;51033;42.648;23.292;2023-09-07T03:39:57;94336.28;;;19.01;61.79
30935;BME280;51033;42.648;23.292;2023-09-07T03:42:23;94342.91;;;18.87;62.12
30935;BME280;51033;42.648;23.292;2023-09-07T03:44:48;94348.47;;;18.95;62.14
30935;BME280;51033;42.648;23.292;2023-09-07T03:47:14;94345.13;;;18.82;62.69
30935;BME280;51033;42.648;23.292;2023-09-07T03:49:40;94342.72;;;18.96;62.24
30935;BME280;51033;42.648;23.292;2023-09-07T03:52:06;94351.34;;;19.02;62.15
30935;BME280;51033;42.648;23.292;2023-09-07T03:54:32;94315.66;;;18.73;62.17
30935;BME280;51033;42.648;23.292;2023-09-07T03:56:57;94344.66;;;18.96;61.99
30935;BME280;51033;42.648;23.292;2023-09-07T03:59:23;94364.63;;;18.95;62.57
30935;BME280;51033;42.648;23.292;2023-09-07T04:01:48;94360.69;;;19.08;62.19
30935;BME280;51033;42.648;23.292;2023-09-07T04:04:14;94357.44;;;18.83;62.64
30935;BME280;51033;42.648;23.292;2023-09-07T04:06:40;94357.69;;;18.94;62.80
30935;BME280;51033;42.648;23.292;2023-09-07T04:09:05;94346.03;;;18.89;62.81
30935;BME280;51033;42.648;23.292;2023-09-07T04:11:30;94364.19;;;18.93;62.94
30935;BME280;51033;42.648;23.292;2023-09-07T04:13:56;94365.25;;;18.88;63.00
30935;BME280;51033;42.648;23.292;2023-09-07T04:16:21;94362.63;;;18.72;63.78
30935;BME280;51033;42.648;23.292;2023-09-07T04:18:47;94360.25;;;18.86;63.62
30935;BME280;51033;42.648;23.292;2023-09-07T04:21:12;94372.94;;;18.86;63.77
30935;BME280;51033;42.648;23.292;2023-09-07T04:23:37;94352.84;;;18.83;63.92
30935;BME280;51033;42.648;23.292;2023-09-07T04:26:11;94367.50;;;19.02;63.58
30935;BME280;51033;42.648;23.292;2023-09-07T04:28:38;94363.81;;;19.10;62.56
30935;BME280;51033;42.648;23.292;2023-09-07T04:31:04;94365.69;;;19.25;62.18
30935;BME280;51033;42.648;23.292;2023-09-07T04:33:31;94367.34;;;19.14;62.39
30935;BME280;51033;42.648;23.292;2023-09-07T04:35:56;94352.50;;;18.85;62.38
30935;BME280;51033;42.648;23.292;2023-09-07T04:38:22;94355.91;;;18.82;63.18
30935;BME280;51033;42.648;23.292;2023-09-07T04:40:47;94368.97;;;18.99;63.12
30935;BME280;51033;42.648;23.292;2023-09-07T04:43:13;94358.81;;;18.93;63.21
30935;BME280;51033;42.648;23.292;2023-09-07T04:45:46;94373.00;;;18.89;63.71
30935;BME280;51033;42.648;23.292;2023-09-07T04:48:11;94370.47;;;18.97;63.18
30935;BME280;51033;42.648;23.292;2023-09-07T04:50:37;94371.72;;;19.03;63.09
30935;BME280;51033;42.648;23.292;2023-09-07T04:53:02;94380.56;;;18.84;62.61
30935;BME280;51033;42.648;23.292;2023-09-07T04:55:28;94363.66;;;19.03;61.70
30935;BME280;51033;42.648;23.292;2023-09-07T04:57:53;94382.75;;;19.13;60.63
30935;BME280;51033;42.648;23.292;2023-09-07T05:00:19;94375.00;;;19.12;60.53
30935;BME280;51033;42.648;23.292;2023-09-07T05:02:44;94380.88;;;18.98;61.39
30935;BME280;51033;42.648;23.292;2023-09-07T05:05:09;94381.03;;;19.05;61.44
30935;BME280;51033;42.648;23.292;2023-09-07T05:07:35;94367.03;;;18.65;62.56
30935;BME280;51033;42.648;23.292;2023-09-07T05:10:00;94368.88;;;18.45;63.96
30935;BME280;51033;42.648;23.292;2023-09-07T05:12:26;94378.59;;;18.81;62.46
30935;BME280;51033;42.648;23.292;2023-09-07T05:14:51;94368.63;;;19.01;61.19
30935;BME280;51033;42.648;23.292;2023-09-07T05:17:16;94385.41;;;19.29;60.18
30935;BME280;51033;42.648;23.292;2023-09-07T05:19:42;94377.88;;;19.38;59.03
30935;BME280;51033;42.648;23.292;2023-09-07T05:22:07;94384.09;;;19.04;56.67
30935;BME280;51033;42.648;23.292;2023-09-07T05:24:33;94378.88;;;19.11;56.36
30935;BME280;51033;42.648;23.292;2023-09-07T05:26:58;94379.31;;;18.97;55.73
30935;BME280;51033;42.648;23.292;2023-09-07T05:29:24;94388.84;;;19.10;54.64
30935;BME280;51033;42.648;23.292;2023-09-07T05:31:49;94386.81;;;19.23;53.76
30935;BME280;51033;42.648;23.292;2023-09-07T05:34:14;94392.69;;;19.28;53.70
30935;BME280;51033;42.648;23.292;2023-09-07T05:36:40;94387.88;;;19.38;53.97
30935;BME280;51033;42.648;23.292;2023-09-07T05:39:05;94398.72;;;19.41;54.88
30935;BME280;51033;42.648;23.292;2023-09-07T05:41:31;94394.63;;;19.28;56.82
30935;BME280;51033;42.648;23.292;2023-09-07T05:43:57;94396.66;;;18.80;59.84
30935;BME280;51033;42.648;23.292;2023-09-07T05:46:22;94390.50;;;18.80;60.27
30935;BME280;51033;42.648;23.292;2023-09-07T05:48:47;94396.19;;;18.94;60.37
30935;BME280;51033;42.648;23.292;2023-09-07T05:51:13;94385.56;;;18.82;60.65
30935;BME280;51033;42.648;23.292;2023-09-07T05:53:39;94389.16;;;18.89;61.21
30935;BME280;51033;42.648;23.292;2023-09-07T05:56:05;94398.25;;;19.16;60.96
30935;BME280;51033;42.648;23.292;2023-09-07T05:58:30;94403.91;;;19.11;61.25
30935;BME280;51033;42.648;23.292;2023-09-07T06:00:55;94405.59;;;19.00;62.14
30935;BME280;51033;42.648;23.292;2023-09-07T06:03:21;94403.53;;;19.13;62.12
30935;BME280;51033;42.648;23.292;2023-09-07T06:05:46;94404.25;;;19.10;62.05
30935;BME280;51033;42.648;23.292;2023-09-07T06:08:12;94400.88;;;18.97;63.44
30935;BME280;51033;42.648;23.292;2023-09-07T06:10:37;94399.78;;;19.17;63.09
30935;BME280;51033;42.648;23.292;2023-09-07T06:13:03;94403.25;;;19.18;62.99
30935;BME280;51033;42.648;23.292;2023-09-07T06:15:29;94373.19;;;19.35;62.00
30935;BME280;51033;42.648;23.292;2023-09-07T06:17:55;94390.09;;;18.97;62.96
30935;BME280;51033;42.648;23.292;2023-09-07T06:20:20;94401.84;;;19.05;62.89
30935;BME280;51033;42.648;23.292;2023-09-07T06:22:46;94395.03;;;19.11;62.69
30935;BME280;51033;42.648;23.292;2023-09-07T06:25:11;94396.19;;;18.94;62.60
30935;BME280;51033;42.648;23.292;2023-09-07T06:27:37;94396.56;;;19.12;61.91
30935;BME280;51033;42.648;23.292;2023-09-07T06:30:05;94400.59;;;19.37;59.90
30935;BME280;51033;42.648;23.292;2023-09-07T06:32:31;94404.75;;;19.69;58.44
30935;BME280;51033;42.648;23.292;2023-09-07T06:34:57;94414.03;;;19.72;58.01
30935;BME280;51033;42.648;23.292;2023-09-07T06:37:23;94420.22;;;19.72;57.93
30935;BME280;51033;42.648;23.292;2023-09-07T06:39:50;94411.53;;;19.83;56.00
30935;BME280;51033;42.648;23.292;2023-09-07T06:42:15;94399.25;;;19.66;53.32
30935;BME280;51033;42.648;23.292;2023-09-07T06:44:41;94406.00;;;19.56;53.77
30935;BME280;51033;42.648;23.292;2023-09-07T06:47:08;94409.69;;;19.87;53.39
30935;BME280;51033;42.648;23.292;2023-09-07T06:49:33;94412.78;;;20.08;53.11
30935;BME280;51033;42.648;23.292;2023-09-07T06:51:59;94414.88;;;19.76;53.68
30935;BME280;51033;42.648;23.292;2023-09-07T06:54:28;94404.72;;;19.89;55.26
30935;BME280;51033;42.648;23.292;2023-09-07T06:56:54;94400.06;;;20.08;54.10
30935;BME280;51033;42.648;23.292;2023-09-07T06:59:19;94379.59;;;19.85;54.37
30935;BME280;51033;42.648;23.292;2023-09-07T07:01:44;94412.25;;;19.99;54.24
30935;BME280;51033;42.648;23.292;2023-09-07T07:04:10;94409.66;;;20.06;53.25
30935;BME280;51033;42.648;23.292;2023-09-07T07:06:36;94412.78;;;20.08;53.39
30935;BME280;51033;42.648;23.292;2023-09-07T07:09:01;94406.59;;;20.27;53.50
30935;BME280;51033;42.648;23.292;2023-09-07T07:11:26;94409.03;;;20.35;52.81
30935;BME280;51033;42.648;23.292;2023-09-07T07:13:52;94405.38;;;20.24;52.08
30935;BME280;51033;42.648;23.292;2023-09-07T07:16:17;94413.94;;;20.07;51.61
30935;BME280;51033;42.648;23.292;2023-09-07T07:18:43;94405.50;;;20.31;52.18
30935;BME280;51033;42.648;23.292;2023-09-07T07:21:08;94412.28;;;20.44;52.19
30935;BME280;51033;42.648;23.292;2023-09-07T07:23:34;94420.00;;;20.69;52.42
30935;BME280;51033;42.648;23.292;2023-09-07T07:26:00;94428.84;;;20.66;51.31
30935;BME280;51033;42.648;23.292;2023-09-07T07:28:25;94429.38;;;20.75;51.15
30935;BME280;51033;42.648;23.292;2023-09-07T07:30:51;94434.03;;;20.51;51.06
30935;BME280;51033;42.648;23.292;2023-09-07T07:33:19;94434.69;;;20.68;50.49
30935;BME280;51033;42.648;23.292;2023-09-07T07:35:44;94439.41;;;20.74;50.65
30935;BME280;51033;42.648;23.292;2023-09-07T07:38:11;94436.09;;;20.84;50.50
30935;BME280;51033;42.648;23.292;2023-09-07T07:40:38;94442.66;;;21.06;50.09
30935;BME280;51033;42.648;23.292;2023-09-07T07:43:04;94442.44;;;20.46;51.52
30935;BME280;51033;42.648;23.292;2023-09-07T07:45:29;94420.94;;;20.31;52.22
30935;BME280;51033;42.648;23.292;2023-09-07T07:47:55;94454.56;;;20.56;52.05
30935;BME280;51033;42.648;23.292;2023-09-07T07:50:20;94443.22;;;20.47;51.60
30935;BME280;51033;42.648;23.292;2023-09-07T07:52:45;94454.91;;;20.54;52.11
30935;BME280;51033;42.648;23.292;2023-09-07T07:55:11;94447.22;;;20.34;52.66
30935;BME280;51033;42.648;23.292;2023-09-07T07:57:37;94457.56;;;20.28;52.68
30935;BME280;51033;42.648;23.292;2023-09-07T08:00:04;94445.44;;;20.41;52.68
30935;BME280;51033;42.648;23.292;2023-09-07T08:02:30;94430.00;;;20.42;52.52
30935;BME280;51033;42.648;23.292;2023-09-07T08:04:56;94449.50;;;20.54;52.06
30935;BME280;51033;42.648;23.292;2023-09-07T08:07:22;94447.94;;;20.53;52.50
30935;BME280;51033;42.648;23.292;2023-09-07T08:09:47;94456.88;;;20.35;53.04
30935;BME280;51033;42.648;23.292;2023-09-07T08:12:13;94451.25;;;20.66;53.17
30935;BME280;51033;42.648;23.292;2023-09-07T08:14:38;94444.34;;;20.23;52.80
30935;BME280;51033;42.648;23.292;2023-09-07T08:17:03;94434.31;;;20.46;52.13
30935;BME280;51033;42.648;23.292;2023-09-07T08:19:29;94450.59;;;20.73;52.16
30935;BME280;51033;42.648;23.292;2023-09-07T08:21:54;94446.72;;;20.74;52.31
30935;BME280;51033;42.648;23.292;2023-09-07T08:24:20;94446.06;;;20.80;51.63
30935;BME280;51033;42.648;23.292;2023-09-07T08:26:45;94429.72;;;20.73;51.71
30935;BME280;51033;42.648;23.292;2023-09-07T08:29:12;94433.03;;;20.86;51.57
30935;BME280;51033;42.648;23.292;2023-09-07T08:31:38;94436.94;;;20.88;50.92
30935;BME280;51033;42.648;23.292;2023-09-07T08:34:07;94435.88;;;20.70;50.46
30935;BME280;51033;42.648;23.292;2023-09-07T08:36:37;94442.44;;;20.46;50.95
30935;BME280;51033;42.648;23.292;2023-09-07T08:39:04;94442.78;;;20.68;50.79
30935;BME280;51033;42.648;23.292;2023-09-07T08:41:39;94432.09;;;20.75;50.15
30935;BME280;51033;42.648;23.292;2023-09-07T08:44:09;94433.16;;;20.93;49.92
30935;BME280;51033;42.648;23.292;2023-09-07T08:46:37;94433.44;;;21.11;48.58
30935;BME280;51033;42.648;23.292;2023-09-07T08:49:02;94430.09;;;21.21;48.38
30935;BME280;51033;42.648;23.292;2023-09-07T08:51:30;94434.09;;;21.04;48.57
30935;BME280;51033;42.648;23.292;2023-09-07T08:54:00;94443.97;;;21.19;48.54
30935;BME280;51033;42.648;23.292;2023-09-07T08:56:26;94422.00;;;20.72;48.46
30935;BME280;51033;42.648;23.292;2023-09-07T08:58:51;94435.31;;;21.07;47.96
30935;BME280;51033;42.648;23.292;2023-09-07T09:01:17;94438.69;;;21.26;47.99
30935;BME280;51033;42.648;23.292;2023-09-07T09:03:43;94419.28;;;20.94;47.77
30935;BME280;51033;42.648;23.292;2023-09-07T09:06:09;94438.31;;;21.28;47.31
30935;BME280;51033;42.648;23.292;2023-09-07T09:08:55;94433.88;;;21.42;47.30
30935;BME280;51033;42.648;23.292;2023-09-07T09:11:21;94426.06;;;21.37;46.64
30935;BME280;51033;42.648;23.292;2023-09-07T09:13:48;94424.47;;;21.33;46.73
30935;BME280;51033;42.648;23.292;2023-09-07T09:16:14;94432.03;;;21.20;46.73
30935;BME280;51033;42.648;23.292;2023-09-07T09:18:53;94416.06;;;21.41;45.59
30935;BME280;51033;42.648;23.292;2023-09-07T09:21:23;94410.56;;;21.61;45.53
30935;BME280;51033;42.648;23.292;2023-09-07T09:23:51;94414.41;;;21.60;45.23
30935;BME280;51033;42.648;23.292;2023-09-07T09:26:17;94413.47;;;21.78;45.96
30935;BME280;51033;42.648;23.292;2023-09-07T09:28:43;94421.78;;;21.96;45.64
30935;BME280;51033;42.648;23.292;2023-09-07T09:31:12;94416.50;;;21.73;45.21
30935;BME280;51033;42.648;23.292;2023-09-07T09:33:48;94411.38;;;21.65;44.79
30935;BME280;51033;42.648;23.292;2023-09-07T09:36:13;94405.88;;;21.91;45.80
30935;BME280;51033;42.648;23.292;2023-09-07T09:38:39;94410.38;;;22.13;45.55
30935;BME280;51033;42.648;23.292;2023-09-07T09:41:05;94416.28;;;22.22;44.97
30935;BME280;51033;42.648;23.292;2023-09-07T09:43:31;94408.84;;;22.19;44.52
30935;BME280;51033;42.648;23.292;2023-09-07T09:45:57;94410.50;;;21.91;44.27
30935;BME280;51033;42.648;23.292;2023-09-07T09:48:23;94401.09;;;21.51;44.22
30935;BME280;51033;42.648;23.292;2023-09-07T09:50:50;94407.03;;;21.90;44.04
30935;BME280;51033;42.648;23.292;2023-09-07T09:53:16;94407.94;;;22.05;43.50
30935;BME280;51033;42.648;23.292;2023-09-07T09:55:50;94415.22;;;21.97;43.79
30935;BME280;51033;42.648;23.292;2023-09-07T09:58:18;94409.16;;;22.11;44.16
30935;BME280;51033;42.648;23.292;2023-09-07T10:00:46;94392.88;;;22.07;42.80
30935;BME280;51033;42.648;23.292;2023-09-07T10:03:23;94408.19;;;21.89;42.59
30935;BME280;51033;42.648;23.292;2023-09-07T10:05:52;94403.59;;;21.97;43.50
30935;BME280;51033;42.648;23.292;2023-09-07T10:08:18;94406.75;;;22.02;43.34
30935;BME280;51033;42.648;23.292;2023-09-07T10:10:46;94390.94;;;21.71;43.40
30935;BME280;51033;42.648;23.292;2023-09-07T10:13:16;94405.03;;;21.83;43.08
30935;BME280;51033;42.648;23.292;2023-09-07T10:15:42;94402.75;;;21.89;42.94
30935;BME280;51033;42.648;23.292;2023-09-07T10:18:15;94398.50;;;21.55;43.61
30935;BME280;51033;42.648;23.292;2023-09-07T10:20:48;94394.38;;;21.38;43.92
30935;BME280;51033;42.648;23.292;2023-09-07T10:23:15;94399.50;;;21.46;43.84
30935;BME280;51033;42.648;23.292;2023-09-07T10:25:40;94390.06;;;21.33;43.84
30935;BME280;51033;42.648;23.292;2023-09-07T10:28:17;94387.81;;;21.65;43.08
30935;BME280;51033;42.648;23.292;2023-09-07T10:30:43;94391.16;;;21.55;43.79
30935;BME280;51033;42.648;23.292;2023-09-07T10:33:19;94387.00;;;21.98;44.40
30935;BME280;51033;42.648;23.292;2023-09-07T10:35:45;94379.72;;;22.06;42.92
30935;BME280;51033;42.648;23.292;2023-09-07T10:38:13;94385.28;;;21.83;42.60
30935;BME280;51033;42.648;23.292;2023-09-07T10:40:39;94356.41;;;21.98;43.95
30935;BME280;51033;42.648;23.292;2023-09-07T10:43:04;94381.88;;;22.26;43.37
30935;BME280;51033;42.648;23.292;2023-09-07T10:45:30;94371.56;;;22.43;42.76
30935;BME280;51033;42.648;23.292;2023-09-07T10:47:55;94382.50;;;22.53;42.73
30935;BME280;51033;42.648;23.292;2023-09-07T10:50:21;94371.69;;;22.57;41.61
30935;BME280;51033;42.648;23.292;2023-09-07T10:52:46;94366.63;;;22.52;40.90
30935;BME280;51033;42.648;23.292;2023-09-07T10:55:12;94378.72;;;22.65;41.34
30935;BME280;51033;42.648;23.292;2023-09-07T10:57:47;94379.50;;;22.65;41.49
30935;BME280;51033;42.648;23.292;2023-09-07T11:00:14;94368.72;;;22.76;41.98
30935;BME280;51033;42.648;23.292;2023-09-07T11:02:43;94368.75;;;22.83;41.82
30935;BME280;51033;42.648;23.292;2023-09-07T11:05:08;94364.13;;;22.84;41.58
30935;BME280;51033;42.648;23.292;2023-09-07T11:07:36;94375.88;;;22.98;41.88
30935;BME280;51033;42.648;23.292;2023-09-07T11:10:05;94373.88;;;22.88;41.92
30935;BME280;51033;42.648;23.292;2023-09-07T11:12:36;94361.75;;;22.75;41.97
30935;BME280;51033;42.648;23.292;2023-09-07T11:15:03;94377.41;;;22.92;40.87
30935;BME280;51033;42.648;23.292;2023-09-07T11:17:29;94372.34;;;22.43;40.91
30935;BME280;51033;42.648;23.292;2023-09-07T11:19:55;94369.31;;;22.52;41.59
30935;BME280;51033;42.648;23.292;2023-09-07T11:22:21;94377.25;;;22.78;42.56
30935;BME280;51033;42.648;23.292;2023-09-07T11:24:47;94376.09;;;22.79;40.74
30935;BME280;51033;42.648;23.292;2023-09-07T11:27:12;94375.19;;;22.61;40.92
30935;BME280;51033;42.648;23.292;2023-09-07T11:29:38;94366.00;;;22.72;41.22
30935;BME280;51033;42.648;23.292;2023-09-07T11:32:08;94364.78;;;22.63;41.94
30935;BME280;51033;42.648;23.292;2023-09-07T11:34:34;94366.41;;;22.78;42.14
30935;BME280;51033;42.648;23.292;2023-09-07T11:37:02;94362.81;;;22.63;41.65
30935;BME280;51033;42.648;23.292;2023-09-07T11:39:28;94355.34;;;22.50;41.59
30935;BME280;51033;42.648;23.292;2023-09-07T11:41:53;94352.41;;;22.69;41.98
30935;BME280;51033;42.648;23.292;2023-09-07T11:44:20;94356.38;;;22.82;41.98
30935;BME280;51033;42.648;23.292;2023-09-07T11:46:45;94366.41;;;22.78;41.63
30935;BME280;51033;42.648;23.292;2023-09-07T11:49:11;94366.06;;;22.83;41.57
30935;BME280;51033;42.648;23.292;2023-09-07T11:51:36;94366.72;;;22.69;41.83
30935;BME280;51033;42.648;23.292;2023-09-07T11:54:03;94359.28;;;22.56;41.82
30935;BME280;51033;42.648;23.292;2023-09-07T11:56:28;94358.59;;;22.69;42.52
30935;BME280;51033;42.648;23.292;2023-09-07T11:58:54;94358.59;;;22.66;41.91
30935;BME280;51033;42.648;23.292;2023-09-07T12:01:20;94341.88;;;22.16;42.40
30935;BME280;51033;42.648;23.292;2023-09-07T12:03:46;94352.69;;;22.09;42.81
30935;BME280;51033;42.648;23.292;2023-09-07T12:06:12;94353.22;;;22.25;42.67
30935;BME280;51033;42.648;23.292;2023-09-07T12:08:41;94333.31;;;22.11;42.99
30935;BME280;51033;42.648;23.292;2023-09-07T12:11:07;94354.47;;;22.35;42.29
30935;BME280;51033;42.648;23.292;2023-09-07T12:13:32;94358.94;;;22.17;42.50
30935;BME280;51033;42.648;23.292;2023-09-07T12:15:58;94360.34;;;22.04;42.72
30935;BME280;51033;42.648;23.292;2023-09-07T12:18:23;94346.91;;;21.74;42.97
30935;BME280;51033;42.648;23.292;2023-09-07T12:20:49;94353.78;;;21.68;42.91
30935;BME280;51033;42.648;23.292;2023-09-07T12:23:14;94343.06;;;21.75;42.95
30935;BME280;51033;42.648;23.292;2023-09-07T12:25:40;94352.88;;;21.90;42.69
30935;BME280;51033;42.648;23.292;2023-09-07T12:28:05;94352.38;;;22.18;42.56
30935;BME280;51033;42.648;23.292;2023-09-07T12:30:30;94339.78;;;22.40;43.51
30935;BME280;51033;42.648;23.292;2023-09-07T12:32:56;94316.88;;;22.30;42.97
30935;BME280;51033;42.648;23.292;2023-09-07T12:35:21;94350.72;;;22.54;42.88
30935;BME280;51033;42.648;23.292;2023-09-07T12:37:47;94356.28;;;22.68;42.64
30935;BME280;51033;42.648;23.292;2023-09-07T12:40:12;94358.06;;;22.50;42.12
30935;BME280;51033;42.648;23.292;2023-09-07T12:42:41;94348.38;;;22.49;41.99
30935;BME280;51033;42.648;23.292;2023-09-07T12:45:08;94358.47;;;22.52;42.26